sensor_id;sensor_type;location;lat;lon;timestamp;temperature;humidity
46085;DHT22;31823;47.032;8.310;2023-08-01T00:01:06;17.90;99.90
46085;DHT22;31823;47.032;8.310;2023-08-01T00:03:32;17.90;99.90
46085;DHT22;31823;47.032;8.310;2023-08-01T00:05:57;17.80;99.90
46085;DHT22;31823;47.032;8.310;2023-08-01T00:08:23;17.90;99.90
46085;DHT22;31823;47.032;8.310;2023-08-01T00:10:49;17.90;99.90
46085;DHT22;31823;47.032;8.310;2023-08-01T00:13:14;17.90;99.90
46085;DHT22;31823;47.032;8.310;2023-08-01T00:15:40;17.90;99.90
46085;DHT22;31823;47.032;8.310;2023-08-01T00:18:05;18.00;99.90
46085;DHT22;31823;47.032;8.310;2023-08-01T00:20:31;18.00;99.90
46085;DHT22;31823;47.032;8.310;2023-08-01T00:22:56;18.00;99.90
46085;DHT22;31823;47.032;8.310;2023-08-01T00:25:22;18.00;99.90
46085;DHT22;31823;47.032;8.310;2023-08-01T00:27:48;17.90;99.90
46085;DHT22;31823;47.032;8.310;2023-08-01T00:30:13;17.90;99.90
46085;DHT22;31823;47.032;8.310;2023-08-01T00:32:39;17.90;99.90
46085;DHT22;31823;47.032;8.310;2023-08-01T00:35:05;17.90;99.90
46085;DHT22;31823;47.032;8.310;2023-08-01T00:37:30;17.90;99.90
46085;DHT22;31823;47.032;8.310;2023-08-01T00:39:56;17.90;99.90
46085;DHT22;31823;47.032;8.310;2023-08-01T00:42:21;17.90;99.90
46085;DHT22;31823;47.032;8.310;2023-08-01T00:44:47;17.80;99.90
46085;DHT22;31823;47.032;8.310;2023-08-01T00:47:14;17.80;99.90
46085;DHT22;31823;47.032;8.310;2023-08-01T00:49:40;17.90;99.90
46085;DHT22;31823;47.032;8.310;2023-08-01T00:52:06;17.90;99.90
46085;DHT22;31823;47.032;8.310;2023-08-01T00:54:32;18.00;99.90
46085;DHT22;31823;47.032;8.310;2023-08-01T00:57:05;18.00;99.90
46085;DHT22;31823;47.032;8.310;2023-08-01T00:59:30;18.00;99.90
46085;DHT22;31823;47.032;8.310;2023-08-01T01:01:56;18.00;99.90
46085;DHT22;31823;47.032;8.310;2023-08-01T01:04:23;17.90;99.90
46085;DHT22;31823;47.032;8.310;2023-08-01T01:07:03;17.90;99.90
46085;DHT22;31823;47.032;8.310;2023-08-01T01:09:30;17.80;99.90
46085;DHT22;31823;47.032;8.310;2023-08-01T01:11:58;17.90;99.90
46085;DHT22;31823;47.032;8.310;2023-08-01T01:14:27;17.90;99.90
46085;DHT22;31823;47.032;8.310;2023-08-01T01:16:53;17.90;99.90
46085;DHT22;31823;47.032;8.310;2023-08-01T01:19:19;17.90;99.90
46085;DHT22;31823;47.032;8.310;2023-08-01T01:22:16;17.90;99.90
46085;DHT22;31823;47.032;8.310;2023-08-01T01:24:42;17.90;99.90
46085;DHT22;31823;47.032;8.310;2023-08-01T01:27:09;18.00;99.90
46085;DHT22;31823;47.032;8.310;2023-08-01T01:29:35;17.90;99.90
46085;DHT22;31823;47.032;8.310;2023-08-01T01:32:01;17.90;99.90
46085;DHT22;31823;47.032;8.310;2023-08-01T01:34:28;18.00;99.90
46085;DHT22;31823;47.032;8.310;2023-08-01T01:36:54;17.90;99.90
46085;DHT22;31823;47.032;8.310;2023-08-01T01:39:19;17.80;99.90
46085;DHT22;31823;47.032;8.310;2023-08-01T01:41:45;17.80;99.90
46085;DHT22;31823;47.032;8.310;2023-08-01T01:44:11;17.70;99.90
46085;DHT22;31823;47.032;8.310;2023-08-01T01:46:36;17.70;99.90
46085;DHT22;31823;47.032;8.310;2023-08-01T01:49:02;17.70;99.90
46085;DHT22;31823;47.032;8.310;2023-08-01T01:51:28;17.70;99.90
46085;DHT22;31823;47.032;8.310;2023-08-01T01:53:54;17.80;99.90
46085;DHT22;31823;47.032;8.310;2023-08-01T01:56:19;17.70;99.90
46085;DHT22;31823;47.032;8.310;2023-08-01T01:58:45;17.60;99.90
46085;DHT22;31823;47.032;8.310;2023-08-01T02:01:10;17.60;99.90
46085;DHT22;31823;47.032;8.310;2023-08-01T02:03:36;17.60;99.90
46085;DHT22;31823;47.032;8.310;2023-08-01T02:06:02;17.70;99.90
46085;DHT22;31823;47.032;8.310;2023-08-01T02:08:31;17.70;99.90
46085;DHT22;31823;47.032;8.310;2023-08-01T02:10:56;17.70;99.90
46085;DHT22;31823;47.032;8.310;2023-08-01T02:13:27;17.80;99.90
46085;DHT22;31823;47.032;8.310;2023-08-01T02:15:53;17.80;99.90
46085;DHT22;31823;47.032;8.310;2023-08-01T02:18:19;18.00;99.90
46085;DHT22;31823;47.032;8.310;2023-08-01T02:20:44;18.40;99.90
46085;DHT22;31823;47.032;8.310;2023-08-01T02:23:10;18.00;99.90
46085;DHT22;31823;47.032;8.310;2023-08-01T02:25:42;17.90;99.90
46085;DHT22;31823;47.032;8.310;2023-08-01T02:28:08;18.10;99.90
46085;DHT22;31823;47.032;8.310;2023-08-01T02:30:34;18.10;99.90
46085;DHT22;31823;47.032;8.310;2023-08-01T02:33:00;18.00;99.90
46085;DHT22;31823;47.032;8.310;2023-08-01T02:35:26;18.10;99.90
46085;DHT22;31823;47.032;8.310;2023-08-01T02:37:53;18.10;99.90
46085;DHT22;31823;47.032;8.310;2023-08-01T02:40:19;18.10;99.90
46085;DHT22;31823;47.032;8.310;2023-08-01T02:42:44;18.10;99.90
46085;DHT22;31823;47.032;8.310;2023-08-01T02:45:10;18.10;99.90
46085;DHT22;31823;47.032;8.310;2023-08-01T02:47:35;18.30;99.90
46085;DHT22;31823;47.032;8.310;2023-08-01T02:50:01;19.20;99.90
46085;DHT22;31823;47.032;8.310;2023-08-01T02:52:27;19.00;99.90
46085;DHT22;31823;47.032;8.310;2023-08-01T02:54:53;19.40;99.90
46085;DHT22;31823;47.032;8.310;2023-08-01T02:57:18;18.80;99.90
46085;DHT22;31823;47.032;8.310;2023-08-01T02:59:44;18.50;99.90
46085;DHT22;31823;47.032;8.310;2023-08-01T03:02:10;18.40;99.90
46085;DHT22;31823;47.032;8.310;2023-08-01T03:04:35;18.30;99.90
46085;DHT22;31823;47.032;8.310;2023-08-01T03:07:01;18.40;99.90
46085;DHT22;31823;47.032;8.310;2023-08-01T03:09:27;19.00;99.90
46085;DHT22;31823;47.032;8.310;2023-08-01T03:11:52;18.90;99.90
46085;DHT22;31823;47.032;8.310;2023-08-01T03:14:18;18.80;99.90
46085;DHT22;31823;47.032;8.310;2023-08-01T03:16:43;19.60;99.90
46085;DHT22;31823;47.032;8.310;2023-08-01T03:19:09;20.00;99.90
46085;DHT22;31823;47.032;8.310;2023-08-01T03:21:34;20.60;99.90
46085;DHT22;31823;47.032;8.310;2023-08-01T03:24:02;20.60;99.90
46085;DHT22;31823;47.032;8.310;2023-08-01T03:26:28;20.00;99.90
46085;DHT22;31823;47.032;8.310;2023-08-01T03:28:55;19.40;99.90
46085;DHT22;31823;47.032;8.310;2023-08-01T03:31:24;18.80;99.90
46085;DHT22;31823;47.032;8.310;2023-08-01T03:33:49;18.30;99.90
46085;DHT22;31823;47.032;8.310;2023-08-01T03:36:15;17.90;99.90
46085;DHT22;31823;47.032;8.310;2023-08-01T03:38:41;17.60;99.90
46085;DHT22;31823;47.032;8.310;2023-08-01T03:41:06;17.60;99.90
46085;DHT22;31823;47.032;8.310;2023-08-01T03:43:32;18.20;99.90
46085;DHT22;31823;47.032;8.310;2023-08-01T03:45:57;17.80;99.90
46085;DHT22;31823;47.032;8.310;2023-08-01T03:48:23;17.40;99.90
46085;DHT22;31823;47.032;8.310;2023-08-01T03:50:48;17.30;99.90
46085;DHT22;31823;47.032;8.310;2023-08-01T03:53:14;17.30;99.90
46085;DHT22;31823;47.032;8.310;2023-08-01T03:55:39;17.10;99.90
46085;DHT22;31823;47.032;8.310;2023-08-01T03:58:05;17.00;99.90
46085;DHT22;31823;47.032;8.310;2023-08-01T04:00:31;16.80;99.90
46085;DHT22;31823;47.032;8.310;2023-08-01T04:02:58;16.80;99.90
46085;DHT22;31823;47.032;8.310;2023-08-01T04:05:24;16.80;99.90
46085;DHT22;31823;47.032;8.310;2023-08-01T04:07:50;17.10;99.90
46085;DHT22;31823;47.032;8.310;2023-08-01T04:10:15;17.30;99.90
46085;DHT22;31823;47.032;8.310;2023-08-01T04:12:41;17.30;99.90
46085;DHT22;31823;47.032;8.310;2023-08-01T04:15:08;17.20;99.90
46085;DHT22;31823;47.032;8.310;2023-08-01T04:17:34;17.00;99.90
46085;DHT22;31823;47.032;8.310;2023-08-01T04:19:59;17.00;99.90
46085;DHT22;31823;47.032;8.310;2023-08-01T04:22:25;17.10;99.90
46085;DHT22;31823;47.032;8.310;2023-08-01T04:24:50;17.10;99.90
46085;DHT22;31823;47.032;8.310;2023-08-01T04:27:16;17.10;99.90
46085;DHT22;31823;47.032;8.310;2023-08-01T04:29:41;17.10;99.90
46085;DHT22;31823;47.032;8.310;2023-08-01T04:32:07;17.10;99.90
46085;DHT22;31823;47.032;8.310;2023-08-01T04:34:33;17.00;99.90
46085;DHT22;31823;47.032;8.310;2023-08-01T04:36:58;17.00;99.90
46085;DHT22;31823;47.032;8.310;2023-08-01T04:39:24;17.10;99.90
46085;DHT22;31823;47.032;8.310;2023-08-01T04:41:49;16.90;99.90
46085;DHT22;31823;47.032;8.310;2023-08-01T04:44:15;16.90;99.90
46085;DHT22;31823;47.032;8.310;2023-08-01T04:46:41;16.90;99.90
46085;DHT22;31823;47.032;8.310;2023-08-01T04:49:07;17.10;99.90
46085;DHT22;31823;47.032;8.310;2023-08-01T04:51:32;17.10;99.90
46085;DHT22;31823;47.032;8.310;2023-08-01T04:53:58;17.00;99.90
46085;DHT22;31823;47.032;8.310;2023-08-01T04:56:24;17.00;99.90
46085;DHT22;31823;47.032;8.310;2023-08-01T04:58:49;17.00;99.90
46085;DHT22;31823;47.032;8.310;2023-08-01T05:01:15;16.90;99.90
46085;DHT22;31823;47.032;8.310;2023-08-01T05:03:40;16.90;99.90
46085;DHT22;31823;47.032;8.310;2023-08-01T05:06:06;16.90;99.90
46085;DHT22;31823;47.032;8.310;2023-08-01T05:08:31;16.90;99.90
46085;DHT22;31823;47.032;8.310;2023-08-01T05:10:57;16.80;99.90
46085;DHT22;31823;47.032;8.310;2023-08-01T05:13:22;16.80;99.90
46085;DHT22;31823;47.032;8.310;2023-08-01T05:15:48;16.90;99.90
46085;DHT22;31823;47.032;8.310;2023-08-01T05:18:15;17.00;99.90
46085;DHT22;31823;47.032;8.310;2023-08-01T05:20:41;16.90;99.90
46085;DHT22;31823;47.032;8.310;2023-08-01T05:23:07;16.80;99.90
46085;DHT22;31823;47.032;8.310;2023-08-01T05:25:32;16.90;99.90
46085;DHT22;31823;47.032;8.310;2023-08-01T05:27:58;16.90;99.90
46085;DHT22;31823;47.032;8.310;2023-08-01T05:30:24;16.90;99.90
46085;DHT22;31823;47.032;8.310;2023-08-01T05:32:50;16.90;99.90
46085;DHT22;31823;47.032;8.310;2023-08-01T05:35:16;16.90;99.90
46085;DHT22;31823;47.032;8.310;2023-08-01T05:37:42;17.00;99.90
46085;DHT22;31823;47.032;8.310;2023-08-01T05:40:08;16.90;99.90
46085;DHT22;31823;47.032;8.310;2023-08-01T05:42:34;16.90;99.90
46085;DHT22;31823;47.032;8.310;2023-08-01T05:44:59;17.00;99.90
46085;DHT22;31823;47.032;8.310;2023-08-01T05:47:25;17.00;99.90
46085;DHT22;31823;47.032;8.310;2023-08-01T05:49:50;17.00;99.90
46085;DHT22;31823;47.032;8.310;2023-08-01T05:52:16;17.00;99.90
46085;DHT22;31823;47.032;8.310;2023-08-01T05:54:41;17.00;99.90
46085;DHT22;31823;47.032;8.310;2023-08-01T05:57:07;17.00;99.90
46085;DHT22;31823;47.032;8.310;2023-08-01T05:59:33;16.90;99.90
46085;DHT22;31823;47.032;8.310;2023-08-01T06:01:59;16.80;99.90
46085;DHT22;31823;47.032;8.310;2023-08-01T06:04:24;16.90;99.90
46085;DHT22;31823;47.032;8.310;2023-08-01T06:06:50;16.90;99.90
46085;DHT22;31823;47.032;8.310;2023-08-01T06:09:16;17.00;99.90
46085;DHT22;31823;47.032;8.310;2023-08-01T06:11:41;17.10;99.90
46085;DHT22;31823;47.032;8.310;2023-08-01T06:14:07;17.00;99.90
46085;DHT22;31823;47.032;8.310;2023-08-01T06:16:32;16.90;99.90
46085;DHT22;31823;47.032;8.310;2023-08-01T06:18:58;17.00;99.90
46085;DHT22;31823;47.032;8.310;2023-08-01T06:21:24;17.00;99.90
46085;DHT22;31823;47.032;8.310;2023-08-01T06:23:49;17.00;99.90
46085;DHT22;31823;47.032;8.310;2023-08-01T06:26:15;17.10;99.90
46085;DHT22;31823;47.032;8.310;2023-08-01T06:28:41;17.10;99.90
46085;DHT22;31823;47.032;8.310;2023-08-01T06:31:06;17.00;99.90
46085;DHT22;31823;47.032;8.310;2023-08-01T06:33:32;17.10;99.90
46085;DHT22;31823;47.032;8.310;2023-08-01T06:35:58;17.20;99.90
46085;DHT22;31823;47.032;8.310;2023-08-01T06:38:23;17.20;99.90
46085;DHT22;31823;47.032;8.310;2023-08-01T06:40:49;17.20;99.90
46085;DHT22;31823;47.032;8.310;2023-08-01T06:43:14;17.30;99.90
46085;DHT22;31823;47.032;8.310;2023-08-01T06:45:40;17.30;99.90
46085;DHT22;31823;47.032;8.310;2023-08-01T06:48:05;17.30;99.90
46085;DHT22;31823;47.032;8.310;2023-08-01T06:50:31;17.30;99.90
46085;DHT22;31823;47.032;8.310;2023-08-01T06:52:56;17.40;99.90
46085;DHT22;31823;47.032;8.310;2023-08-01T06:55:22;17.50;99.90
46085;DHT22;31823;47.032;8.310;2023-08-01T06:57:47;17.60;99.90
46085;DHT22;31823;47.032;8.310;2023-08-01T07:00:13;17.80;99.90
46085;DHT22;31823;47.032;8.310;2023-08-01T07:02:39;17.80;99.90
46085;DHT22;31823;47.032;8.310;2023-08-01T07:05:05;18.00;99.90
46085;DHT22;31823;47.032;8.310;2023-08-01T07:07:30;17.80;99.90
46085;DHT22;31823;47.032;8.310;2023-08-01T07:09:56;17.80;99.90
46085;DHT22;31823;47.032;8.310;2023-08-01T07:12:21;17.80;99.90
46085;DHT22;31823;47.032;8.310;2023-08-01T07:14:47;17.70;99.90
46085;DHT22;31823;47.032;8.310;2023-08-01T07:17:12;17.70;99.90
46085;DHT22;31823;47.032;8.310;2023-08-01T07:19:38;17.70;99.90
46085;DHT22;31823;47.032;8.310;2023-08-01T07:22:03;17.70;99.90
46085;DHT22;31823;47.032;8.310;2023-08-01T07:24:29;17.70;99.90
46085;DHT22;31823;47.032;8.310;2023-08-01T07:26:54;17.70;99.90
46085;DHT22;31823;47.032;8.310;2023-08-01T07:29:20;17.80;99.90
46085;DHT22;31823;47.032;8.310;2023-08-01T07:31:45;17.80;99.90
46085;DHT22;31823;47.032;8.310;2023-08-01T07:34:11;17.70;99.90
46085;DHT22;31823;47.032;8.310;2023-08-01T07:36:37;17.60;99.90
46085;DHT22;31823;47.032;8.310;2023-08-01T07:39:03;17.40;99.90
46085;DHT22;31823;47.032;8.310;2023-08-01T07:41:29;17.30;99.90
46085;DHT22;31823;47.032;8.310;2023-08-01T07:43:54;17.30;99.90
46085;DHT22;31823;47.032;8.310;2023-08-01T07:46:20;17.40;99.90
46085;DHT22;31823;47.032;8.310;2023-08-01T07:48:45;17.40;99.90
46085;DHT22;31823;47.032;8.310;2023-08-01T07:51:11;17.50;99.90
46085;DHT22;31823;47.032;8.310;2023-08-01T07:53:37;17.60;99.90
46085;DHT22;31823;47.032;8.310;2023-08-01T07:56:02;17.70;99.90
46085;DHT22;31823;47.032;8.310;2023-08-01T07:58:29;17.80;99.90
46085;DHT22;31823;47.032;8.310;2023-08-01T08:00:54;17.60;99.90
46085;DHT22;31823;47.032;8.310;2023-08-01T08:03:20;17.30;99.90
46085;DHT22;31823;47.032;8.310;2023-08-01T08:05:48;17.10;99.90
46085;DHT22;31823;47.032;8.310;2023-08-01T08:08:14;17.20;99.90
46085;DHT22;31823;47.032;8.310;2023-08-01T08:10:39;17.20;99.90
46085;DHT22;31823;47.032;8.310;2023-08-01T08:13:05;17.20;99.90
46085;DHT22;31823;47.032;8.310;2023-08-01T08:15:30;17.10;99.90
46085;DHT22;31823;47.032;8.310;2023-08-01T08:18:00;17.10;99.90
46085;DHT22;31823;47.032;8.310;2023-08-01T08:20:26;17.10;99.90
46085;DHT22;31823;47.032;8.310;2023-08-01T08:22:52;17.00;99.90
46085;DHT22;31823;47.032;8.310;2023-08-01T08:25:17;17.10;99.90
46085;DHT22;31823;47.032;8.310;2023-08-01T08:27:43;17.20;99.90
46085;DHT22;31823;47.032;8.310;2023-08-01T08:30:09;17.30;99.90
46085;DHT22;31823;47.032;8.310;2023-08-01T08:32:35;17.20;99.90
46085;DHT22;31823;47.032;8.310;2023-08-01T08:35:01;17.20;99.90
46085;DHT22;31823;47.032;8.310;2023-08-01T08:37:26;17.30;99.90
46085;DHT22;31823;47.032;8.310;2023-08-01T08:39:52;17.40;99.90
46085;DHT22;31823;47.032;8.310;2023-08-01T08:42:18;17.60;99.90
46085;DHT22;31823;47.032;8.310;2023-08-01T08:44:44;17.80;99.90
46085;DHT22;31823;47.032;8.310;2023-08-01T08:47:17;17.80;99.90
46085;DHT22;31823;47.032;8.310;2023-08-01T08:49:44;17.90;99.90
46085;DHT22;31823;47.032;8.310;2023-08-01T08:52:11;18.10;99.90
46085;DHT22;31823;47.032;8.310;2023-08-01T08:54:38;17.80;99.90
46085;DHT22;31823;47.032;8.310;2023-08-01T08:57:07;17.80;99.90
46085;DHT22;31823;47.032;8.310;2023-08-01T08:59:33;18.00;99.90
46085;DHT22;31823;47.032;8.310;2023-08-01T09:02:02;18.20;99.90
46085;DHT22;31823;47.032;8.310;2023-08-01T09:04:30;18.10;99.90
46085;DHT22;31823;47.032;8.310;2023-08-01T09:07:00;17.80;99.90
46085;DHT22;31823;47.032;8.310;2023-08-01T09:09:27;17.70;99.90
46085;DHT22;31823;47.032;8.310;2023-08-01T09:11:53;17.70;99.90
46085;DHT22;31823;47.032;8.310;2023-08-01T09:14:21;17.80;99.90
46085;DHT22;31823;47.032;8.310;2023-08-01T09:16:47;18.10;99.90
46085;DHT22;31823;47.032;8.310;2023-08-01T09:19:17;18.30;99.90
46085;DHT22;31823;47.032;8.310;2023-08-01T09:21:43;18.30;99.90
46085;DHT22;31823;47.032;8.310;2023-08-01T09:24:10;18.30;99.90
46085;DHT22;31823;47.032;8.310;2023-08-01T09:26:36;18.40;99.90
46085;DHT22;31823;47.032;8.310;2023-08-01T09:29:01;18.50;99.90
46085;DHT22;31823;47.032;8.310;2023-08-01T09:31:29;18.50;99.90
46085;DHT22;31823;47.032;8.310;2023-08-01T09:33:55;18.30;99.90
46085;DHT22;31823;47.032;8.310;2023-08-01T09:36:21;18.30;99.90
46085;DHT22;31823;47.032;8.310;2023-08-01T09:38:47;18.70;99.90
46085;DHT22;31823;47.032;8.310;2023-08-01T09:41:17;18.90;99.90
46085;DHT22;31823;47.032;8.310;2023-08-01T09:43:44;19.10;99.90
46085;DHT22;31823;47.032;8.310;2023-08-01T09:46:11;19.20;99.90
46085;DHT22;31823;47.032;8.310;2023-08-01T09:48:38;19.20;99.90
46085;DHT22;31823;47.032;8.310;2023-08-01T09:51:14;19.20;99.90
46085;DHT22;31823;47.032;8.310;2023-08-01T09:56:20;18.80;99.90
46085;DHT22;31823;47.032;8.310;2023-08-01T09:58:49;18.70;99.90
46085;DHT22;31823;47.032;8.310;2023-08-01T10:01:16;18.60;99.90
46085;DHT22;31823;47.032;8.310;2023-08-01T10:03:45;18.40;99.90
46085;DHT22;31823;47.032;8.310;2023-08-01T10:06:17;18.30;99.90
46085;DHT22;31823;47.032;8.310;2023-08-01T10:08:44;18.30;99.90
46085;DHT22;31823;47.032;8.310;2023-08-01T10:11:10;18.20;99.90
46085;DHT22;31823;47.032;8.310;2023-08-01T10:13:37;18.00;99.90
46085;DHT22;31823;47.032;8.310;2023-08-01T10:16:03;18.00;99.90
46085;DHT22;31823;47.032;8.310;2023-08-01T10:18:30;17.90;99.90
46085;DHT22;31823;47.032;8.310;2023-08-01T10:20:57;18.00;99.90
46085;DHT22;31823;47.032;8.310;2023-08-01T10:23:23;18.20;99.90
46085;DHT22;31823;47.032;8.310;2023-08-01T10:25:49;18.20;99.90
46085;DHT22;31823;47.032;8.310;2023-08-01T10:28:15;18.70;99.90
46085;DHT22;31823;47.032;8.310;2023-08-01T10:30:40;19.00;99.90
46085;DHT22;31823;47.032;8.310;2023-08-01T10:33:06;19.60;99.90
46085;DHT22;31823;47.032;8.310;2023-08-01T10:35:36;20.30;99.90
46085;DHT22;31823;47.032;8.310;2023-08-01T10:38:12;20.60;99.90
46085;DHT22;31823;47.032;8.310;2023-08-01T10:40:39;20.40;99.90
46085;DHT22;31823;47.032;8.310;2023-08-01T10:43:05;20.30;99.90
46085;DHT22;31823;47.032;8.310;2023-08-01T10:45:31;20.30;99.90
46085;DHT22;31823;47.032;8.310;2023-08-01T10:48:10;20.60;99.90
46085;DHT22;31823;47.032;8.310;2023-08-01T10:50:36;20.60;99.90
46085;DHT22;31823;47.032;8.310;2023-08-01T10:53:07;20.50;99.90
46085;DHT22;31823;47.032;8.310;2023-08-01T10:55:45;20.70;99.90
46085;DHT22;31823;47.032;8.310;2023-08-01T10:58:12;21.00;99.90
46085;DHT22;31823;47.032;8.310;2023-08-01T11:00:38;21.40;99.90
46085;DHT22;31823;47.032;8.310;2023-08-01T11:03:04;21.50;99.90
46085;DHT22;31823;47.032;8.310;2023-08-01T11:05:30;21.40;99.90
46085;DHT22;31823;47.032;8.310;2023-08-01T11:07:56;21.30;99.90
46085;DHT22;31823;47.032;8.310;2023-08-01T11:10:23;21.50;99.90
46085;DHT22;31823;47.032;8.310;2023-08-01T11:12:48;21.50;99.90
46085;DHT22;31823;47.032;8.310;2023-08-01T11:15:15;21.80;99.90
46085;DHT22;31823;47.032;8.310;2023-08-01T11:17:42;22.00;99.90
46085;DHT22;31823;47.032;8.310;2023-08-01T11:20:09;22.00;99.90
46085;DHT22;31823;47.032;8.310;2023-08-01T11:22:36;22.20;99.90
46085;DHT22;31823;47.032;8.310;2023-08-01T11:25:03;22.30;99.90
46085;DHT22;31823;47.032;8.310;2023-08-01T11:27:28;22.00;99.90
46085;DHT22;31823;47.032;8.310;2023-08-01T11:29:56;21.80;99.90
46085;DHT22;31823;47.032;8.310;2023-08-01T11:32:22;21.90;99.90
46085;DHT22;31823;47.032;8.310;2023-08-01T11:34:57;22.00;99.90
46085;DHT22;31823;47.032;8.310;2023-08-01T11:37:25;22.10;99.90
46085;DHT22;31823;47.032;8.310;2023-08-01T11:39:50;22.20;99.90
46085;DHT22;31823;47.032;8.310;2023-08-01T11:42:16;22.20;99.90
46085;DHT22;31823;47.032;8.310;2023-08-01T11:44:43;22.10;99.70
46085;DHT22;31823;47.032;8.310;2023-08-01T11:47:16;22.10;99.90
46085;DHT22;31823;47.032;8.310;2023-08-01T11:49:49;21.90;99.90
46085;DHT22;31823;47.032;8.310;2023-08-01T11:52:28;21.70;99.90
46085;DHT22;31823;47.032;8.310;2023-08-01T11:54:55;21.20;99.90
46085;DHT22;31823;47.032;8.310;2023-08-01T11:57:26;20.90;99.90
46085;DHT22;31823;47.032;8.310;2023-08-01T11:59:55;21.00;99.90
46085;DHT22;31823;47.032;8.310;2023-08-01T12:02:25;21.10;99.90
46085;DHT22;31823;47.032;8.310;2023-08-01T12:04:51;21.00;99.90
46085;DHT22;31823;47.032;8.310;2023-08-01T12:07:18;20.50;99.90
46085;DHT22;31823;47.032;8.310;2023-08-01T12:09:45;20.70;99.90
46085;DHT22;31823;47.032;8.310;2023-08-01T12:12:19;20.60;99.90
46085;DHT22;31823;47.032;8.310;2023-08-01T12:14:45;20.30;99.90
46085;DHT22;31823;47.032;8.310;2023-08-01T12:17:10;19.70;99.90
46085;DHT22;31823;47.032;8.310;2023-08-01T12:19:36;19.20;99.90
46085;DHT22;31823;47.032;8.310;2023-08-01T12:22:02;18.90;99.90
46085;DHT22;31823;47.032;8.310;2023-08-01T12:24:27;19.10;99.90
46085;DHT22;31823;47.032;8.310;2023-08-01T12:26:53;19.30;99.90
46085;DHT22;31823;47.032;8.310;2023-08-01T12:29:18;19.30;99.90
46085;DHT22;31823;47.032;8.310;2023-08-01T12:31:44;19.30;99.90
46085;DHT22;31823;47.032;8.310;2023-08-01T12:34:11;19.20;99.90
46085;DHT22;31823;47.032;8.310;2023-08-01T12:36:36;19.40;99.90
46085;DHT22;31823;47.032;8.310;2023-08-01T12:39:02;20.10;99.90
46085;DHT22;31823;47.032;8.310;2023-08-01T12:41:28;20.50;99.90
46085;DHT22;31823;47.032;8.310;2023-08-01T12:43:54;20.40;99.90
46085;DHT22;31823;47.032;8.310;2023-08-01T12:46:19;20.10;99.90
46085;DHT22;31823;47.032;8.310;2023-08-01T12:48:45;19.90;99.90
46085;DHT22;31823;47.032;8.310;2023-08-01T12:51:11;19.90;99.90
46085;DHT22;31823;47.032;8.310;2023-08-01T12:53:37;19.70;99.90
46085;DHT22;31823;47.032;8.310;2023-08-01T12:56:04;19.60;99.90
46085;DHT22;31823;47.032;8.310;2023-08-01T12:58:30;19.50;99.90
46085;DHT22;31823;47.032;8.310;2023-08-01T13:00:55;19.30;99.90
46085;DHT22;31823;47.032;8.310;2023-08-01T13:03:21;19.20;99.90
46085;DHT22;31823;47.032;8.310;2023-08-01T13:05:46;19.00;99.90
46085;DHT22;31823;47.032;8.310;2023-08-01T13:08:12;19.00;99.90
46085;DHT22;31823;47.032;8.310;2023-08-01T13:10:38;18.70;99.90
46085;DHT22;31823;47.032;8.310;2023-08-01T13:13:04;18.60;99.90
46085;DHT22;31823;47.032;8.310;2023-08-01T13:15:30;18.50;99.90
46085;DHT22;31823;47.032;8.310;2023-08-01T13:17:55;18.40;99.90
46085;DHT22;31823;47.032;8.310;2023-08-01T13:20:21;18.50;99.90
46085;DHT22;31823;47.032;8.310;2023-08-01T13:22:49;18.50;99.90
46085;DHT22;31823;47.032;8.310;2023-08-01T13:25:16;18.40;99.90
46085;DHT22;31823;47.032;8.310;2023-08-01T13:27:42;18.40;99.90
46085;DHT22;31823;47.032;8.310;2023-08-01T13:30:08;18.50;99.90
46085;DHT22;31823;47.032;8.310;2023-08-01T13:32:34;18.40;99.90
46085;DHT22;31823;47.032;8.310;2023-08-01T13:35:00;18.30;99.90
46085;DHT22;31823;47.032;8.310;2023-08-01T13:37:26;18.60;99.90
46085;DHT22;31823;47.032;8.310;2023-08-01T13:39:53;19.20;99.90
46085;DHT22;31823;47.032;8.310;2023-08-01T13:42:19;19.00;99.90
46085;DHT22;31823;47.032;8.310;2023-08-01T13:44:45;18.70;99.90
46085;DHT22;31823;47.032;8.310;2023-08-01T13:47:10;18.80;99.90
46085;DHT22;31823;47.032;8.310;2023-08-01T13:49:36;18.60;99.90
46085;DHT22;31823;47.032;8.310;2023-08-01T13:52:01;18.80;99.90
46085;DHT22;31823;47.032;8.310;2023-08-01T13:54:28;19.20;99.90
46085;DHT22;31823;47.032;8.310;2023-08-01T13:56:54;19.50;99.90
46085;DHT22;31823;47.032;8.310;2023-08-01T13:59:20;19.70;99.90
46085;DHT22;31823;47.032;8.310;2023-08-01T14:01:46;19.70;99.90
46085;DHT22;31823;47.032;8.310;2023-08-01T14:04:12;19.40;99.90
46085;DHT22;31823;47.032;8.310;2023-08-01T14:06:41;18.90;99.90
46085;DHT22;31823;47.032;8.310;2023-08-01T14:09:08;18.70;99.90
46085;DHT22;31823;47.032;8.310;2023-08-01T14:11:34;18.90;99.90
46085;DHT22;31823;47.032;8.310;2023-08-01T14:14:00;18.80;99.90
46085;DHT22;31823;47.032;8.310;2023-08-01T14:16:26;18.90;99.90
46085;DHT22;31823;47.032;8.310;2023-08-01T14:18:51;18.80;99.90
46085;DHT22;31823;47.032;8.310;2023-08-01T14:21:17;18.70;99.90
46085;DHT22;31823;47.032;8.310;2023-08-01T14:23:43;18.60;99.90
46085;DHT22;31823;47.032;8.310;2023-08-01T14:26:08;18.90;99.90
46085;DHT22;31823;47.032;8.310;2023-08-01T14:28:34;19.00;99.90
46085;DHT22;31823;47.032;8.310;2023-08-01T14:31:03;19.00;99.90
46085;DHT22;31823;47.032;8.310;2023-08-01T14:33:29;18.90;99.90
46085;DHT22;31823;47.032;8.310;2023-08-01T14:35:55;19.00;99.90
46085;DHT22;31823;47.032;8.310;2023-08-01T14:38:20;19.10;99.90
46085;DHT22;31823;47.032;8.310;2023-08-01T14:40:46;19.00;99.90
46085;DHT22;31823;47.032;8.310;2023-08-01T14:43:11;19.10;99.90
46085;DHT22;31823;47.032;8.310;2023-08-01T14:45:38;19.20;99.90
46085;DHT22;31823;47.032;8.310;2023-08-01T14:48:05;19.20;99.90
46085;DHT22;31823;47.032;8.310;2023-08-01T14:50:31;19.20;99.90
46085;DHT22;31823;47.032;8.310;2023-08-01T14:52:56;19.00;99.90
46085;DHT22;31823;47.032;8.310;2023-08-01T14:55:22;18.90;99.90
46085;DHT22;31823;47.032;8.310;2023-08-01T14:57:48;18.70;99.90
46085;DHT22;31823;47.032;8.310;2023-08-01T15:00:15;18.70;99.90
46085;DHT22;31823;47.032;8.310;2023-08-01T15:02:40;18.60;99.90
46085;DHT22;31823;47.032;8.310;2023-08-01T15:05:06;18.70;99.90
46085;DHT22;31823;47.032;8.310;2023-08-01T15:07:32;18.40;99.90
46085;DHT22;31823;47.032;8.310;2023-08-01T15:09:57;18.50;99.90
46085;DHT22;31823;47.032;8.310;2023-08-01T15:12:23;18.50;99.90
46085;DHT22;31823;47.032;8.310;2023-08-01T15:14:53;18.50;99.90
46085;DHT22;31823;47.032;8.310;2023-08-01T15:17:19;18.50;99.90
46085;DHT22;31823;47.032;8.310;2023-08-01T15:19:44;18.60;99.90
46085;DHT22;31823;47.032;8.310;2023-08-01T15:22:15;18.60;99.90
46085;DHT22;31823;47.032;8.310;2023-08-01T15:24:41;18.60;99.90
46085;DHT22;31823;47.032;8.310;2023-08-01T15:27:09;18.50;99.90